createdAt,value
2022-10-03T00:02:28.782Z,102742.81
2022-10-03T00:05:06.162Z,102736.81
2022-10-03T00:07:58.036Z,102733.34
2022-10-03T00:10:47.698Z,102735.03
2022-10-03T00:13:24.917Z,102736.72
2022-10-03T00:15:55.753Z,102733.28
2022-10-03T00:18:29.569Z,102731.56
2022-10-03T00:21:22.802Z,102730.69
2022-10-03T00:24:28.803Z,102732.41
2022-10-03T00:27:11.653Z,102733.28
2022-10-03T00:30:05.997Z,102740.13
2022-10-03T00:32:54.788Z,102731.50
2022-10-03T00:35:49.935Z,102733.19
2022-10-03T00:38:31.685Z,102734.91
2022-10-03T00:41:18.237Z,102740.03
2022-10-03T00:44:01.997Z,102728.91
2022-10-03T00:46:43.671Z,102734.06
2022-10-03T00:49:34.549Z,102740.03
2022-10-03T00:52:14.431Z,102739.19
2022-10-03T00:54:54.687Z,102738.34
2022-10-03T00:58:11.727Z,102739.25
2022-10-03T01:00:43.422Z,102734.25
2022-10-03T01:03:22.545Z,102729.22
2022-10-03T01:06:15.644Z,102731.88
2022-10-03T01:09:11.892Z,102732.00
2022-10-03T01:12:24.171Z,102723.47
2022-10-03T01:15:07.754Z,102732.16
2022-10-03T01:17:50.053Z,102730.56
2022-10-03T01:20:40.403Z,102719.50
2022-10-03T01:23:14.089Z,102728.97
2022-10-03T01:26:10.477Z,102730.75
2022-10-03T01:29:06.526Z,102729.16
2022-10-03T01:32:01.845Z,102721.50
2022-10-03T01:35:01.693Z,102739.56
2022-10-03T01:37:41.202Z,102735.31
2022-10-03T01:40:31.331Z,102726.78
2022-10-03T01:43:10.383Z,102732.84
2022-10-03T01:46:05.677Z,102729.44
2022-10-03T01:48:50.609Z,102730.34
2022-10-03T01:51:35.724Z,102728.63
2022-10-03T01:54:19.612Z,102733.78
2022-10-03T01:57:14.000Z,102727.75
2022-10-03T02:00:12.574Z,102725.19
2022-10-03T02:02:50.935Z,102722.56
2022-10-03T02:05:29.164Z,102727.69
2022-10-03T02:08:06.542Z,102736.25
2022-10-03T02:10:53.628Z,102731.91
2022-10-03T02:13:37.670Z,102739.59
2022-10-03T02:16:31.858Z,102737.78
2022-10-03T02:19:24.555Z,102736.00
2022-10-03T02:21:57.989Z,102735.94
2022-10-03T02:24:38.197Z,102741.00
2022-10-03T02:27:37.651Z,102730.59
2022-10-03T02:30:19.006Z,102731.34
2022-10-03T02:33:18.648Z,102733.81
2022-10-03T02:36:01.354Z,102732.78
2022-10-03T02:38:42.393Z,102734.38
2022-10-03T02:41:52.642Z,102737.66
2022-10-03T02:44:58.680Z,102732.25
2022-10-03T02:47:40.609Z,102719.25
2022-10-03T02:50:27.133Z,102725.09
2022-10-03T02:53:16.148Z,102724.91
2022-10-03T02:56:12.345Z,102723.81
2022-10-03T02:59:07.578Z,102730.47
2022-10-03T03:01:49.179Z,102727.53
2022-10-03T03:04:38.171Z,102722.91
2022-10-03T03:07:47.288Z,102723.44
2022-10-03T03:10:27.239Z,102724.84
2022-10-03T03:13:28.585Z,102727.97
2022-10-03T03:16:20.849Z,102728.44
2022-10-03T03:19:17.987Z,102721.16
2022-10-03T03:22:10.670Z,102714.78
2022-10-03T03:25:07.580Z,102723.16
2022-10-03T03:28:04.625Z,102706.25
2022-10-03T03:30:54.744Z,102717.22
2022-10-03T03:33:34.627Z,102710.72
2022-10-03T03:36:22.517Z,102711.16
2022-10-03T03:39:08.661Z,102714.19
2022-10-03T03:42:02.308Z,102710.22
2022-10-03T03:45:01.388Z,102707.06
2022-10-03T03:47:51.517Z,102704.81
2022-10-03T03:50:28.166Z,102712.19
2022-10-03T03:53:32.416Z,102705.63
2022-10-03T03:56:31.190Z,102702.53
2022-10-03T03:59:12.082Z,102711.75
2022-10-03T04:02:07.125Z,102703.59
2022-10-03T04:04:50.893Z,102698.91
2022-10-03T04:07:27.603Z,102702.03
2022-10-03T04:10:23.231Z,102699.88
2022-10-03T04:13:19.749Z,102689.78
2022-10-03T04:16:46.927Z,102693.94
2022-10-03T04:19:29.664Z,102683.16
2022-10-03T04:22:01.696Z,102680.97
2022-10-03T04:24:35.354Z,102687.47
2022-10-03T04:27:21.275Z,102680.84
2022-10-03T04:30:16.616Z,102688.13
2022-10-03T04:33:04.098Z,102686.00
2022-10-03T04:35:52.182Z,102680.44
2022-10-03T04:38:48.743Z,102669.81
2022-10-03T04:42:08.758Z,102682.66
2022-10-03T04:44:51.894Z,102684.91
2022-10-03T04:47:49.374Z,102672.75
2022-10-03T04:50:27.758Z,102680.22
2022-10-03T04:53:32.634Z,102672.78
2022-10-03T04:56:38.528Z,102670.25
2022-10-03T04:59:32.396Z,102670.88
2022-10-03T05:02:33.698Z,102672.28
2022-10-03T05:05:24.717Z,102676.88
2022-10-03T05:08:14.096Z,102673.63
2022-10-03T05:11:26.991Z,102673.00
2022-10-03T05:14:21.085Z,102665.53
2022-10-03T05:16:56.398Z,102665.66
2022-10-03T05:20:05.543Z,102673.69
2022-10-03T05:22:51.069Z,102658.88
2022-10-03T05:25:42.593Z,102663.31
2022-10-03T05:28:23.123Z,102664.25
2022-10-03T05:30:57.715Z,102652.78
2022-10-03T05:33:57.557Z,102655.75
2022-10-03T05:36:25.278Z,102649.91
2022-10-03T05:39:20.102Z,102640.88
2022-10-03T05:42:29.737Z,102638.75
2022-10-03T05:45:03.523Z,102621.31
2022-10-03T05:47:56.367Z,102634.06
2022-10-03T05:50:33.137Z,102631.34
2022-10-03T05:53:21.575Z,102629.59
2022-10-03T05:56:14.111Z,102622.72
2022-10-03T05:58:58.088Z,102626.97
2022-10-03T06:01:53.276Z,102627.63
2022-10-03T06:04:54.185Z,102614.28
2022-10-03T06:07:50.468Z,102611.44
2022-10-03T06:10:40.679Z,102613.88
2022-10-03T06:13:20.128Z,102612.97
2022-10-03T06:16:14.443Z,102617.19
2022-10-03T06:19:07.357Z,102603.94
2022-10-03T06:21:57.830Z,102600.31
2022-10-03T06:24:58.978Z,102601.97
2022-10-03T06:27:39.845Z,102598.56
2022-10-03T06:30:22.814Z,102607.47
2022-10-03T06:33:13.856Z,102598.03
2022-10-03T06:36:15.963Z,102599.81
2022-10-03T06:39:09.972Z,102591.97
2022-10-03T06:41:56.528Z,102592.13
2022-10-03T06:44:34.635Z,102581.75
2022-10-03T06:47:27.754Z,102587.81
2022-10-03T06:50:32.699Z,102586.97
2022-10-03T06:53:32.228Z,102582.53
2022-10-03T06:56:21.184Z,102579.81
2022-10-03T06:59:20.728Z,102569.38
2022-10-03T07:02:16.972Z,102568.41
2022-10-03T07:05:38.557Z,102580.56
2022-10-03T07:08:14.521Z,102567.38
2022-10-03T07:11:03.344Z,102569.09
2022-10-03T07:14:18.514Z,102555.28
2022-10-03T07:17:05.183Z,102562.38
2022-10-03T07:19:48.100Z,102558.94
2022-10-03T07:22:46.863Z,102553.72
2022-10-03T07:25:46.773Z,102550.47
2022-10-03T07:28:21.673Z,102550.63
2022-10-03T07:31:37.765Z,102539.28
2022-10-03T07:34:27.191Z,102534.75
2022-10-03T07:37:17.179Z,102544.22
2022-10-03T07:39:50.758Z,102538.22
2022-10-03T07:42:44.716Z,102535.59
2022-10-03T07:45:35.749Z,102526.75
2022-10-03T07:48:21.781Z,102533.59
2022-10-03T07:51:12.665Z,102532.59
2022-10-03T07:54:04.122Z,102533.09
2022-10-03T07:57:10.651Z,102521.66
2022-10-03T08:00:01.180Z,102521.34
2022-10-03T08:02:51.208Z,102522.38
2022-10-03T08:05:36.375Z,102524.13
2022-10-03T08:08:10.083Z,102522.31
2022-10-03T08:11:15.650Z,102517.03
2022-10-03T08:14:27.922Z,102516.13
2022-10-03T08:16:58.623Z,102503.91
2022-10-03T08:19:26.495Z,102503.97
2022-10-03T08:22:09.291Z,102505.78
2022-10-03T08:24:54.132Z,102484.09
2022-10-03T08:27:29.968Z,102491.88
2022-10-03T08:30:10.297Z,102490.19
2022-10-03T08:32:57.905Z,102490.19
2022-10-03T08:35:39.559Z,102483.06
2022-10-03T08:38:30.508Z,102478.81
2022-10-03T08:41:04.546Z,102488.97
2022-10-03T08:43:51.243Z,102486.31
2022-10-03T08:46:51.653Z,102474.94
2022-10-03T08:49:43.546Z,102487.88
2022-10-03T08:52:14.484Z,102477.38
2022-10-03T08:54:55.896Z,102478.00
2022-10-03T08:57:26.545Z,102475.13
2022-10-03T09:00:10.776Z,102475.84
2022-10-03T09:03:33.415Z,102473.75
2022-10-03T09:06:30.423Z,102480.63
2022-10-03T09:09:20.179Z,102475.66
2022-10-03T09:12:09.681Z,102465.25
2022-10-03T09:14:59.904Z,102472.25
2022-10-03T09:17:59.654Z,102457.47
2022-10-03T09:20:53.851Z,102461.06
2022-10-03T09:23:55.303Z,102454.22
2022-10-03T09:26:59.941Z,102450.09
2022-10-03T09:29:38.750Z,102456.25
2022-10-03T09:32:54.318Z,102444.09
2022-10-03T09:35:48.584Z,102445.78
2022-10-03T09:38:28.748Z,102446.59
2022-10-03T09:41:40.766Z,102442.25
2022-10-03T09:44:20.536Z,102443.19
2022-10-03T09:47:23.354Z,102431.94
2022-10-03T09:49:54.163Z,102440.50
2022-10-03T09:53:04.083Z,102433.56
2022-10-03T09:56:12.204Z,102435.41
2022-10-03T09:59:06.420Z,102440.69
2022-10-03T10:01:37.654Z,102432.19
2022-10-03T10:04:53.117Z,102434.13
2022-10-03T10:07:43.622Z,102429.09
2022-10-03T10:10:51.129Z,102422.28
2022-10-03T10:14:06.157Z,102424.09
2022-10-03T10:17:01.389Z,102426.47
2022-10-03T10:19:52.399Z,102427.38
2022-10-03T10:22:59.570Z,102425.81
2022-10-03T10:25:38.697Z,102419.84
2022-10-03T10:28:10.029Z,102413.97
2022-10-03T10:30:50.033Z,102420.22
2022-10-03T10:33:34.444Z,102413.41
2022-10-03T10:36:39.540Z,102411.69
2022-10-03T10:39:29.370Z,102408.28
2022-10-03T10:42:28.780Z,102408.44
2022-10-03T10:45:15.697Z,102404.25
2022-10-03T10:48:24.624Z,102402.72
2022-10-03T10:51:12.515Z,102406.41
2022-10-03T10:54:15.900Z,102403.06
2022-10-03T10:56:59.116Z,102394.56
2022-10-03T10:59:56.845Z,102392.94
2022-10-03T11:02:49.872Z,102402.75
2022-10-03T11:05:50.349Z,102376.75
2022-10-03T11:08:42.520Z,102399.72
2022-10-03T11:11:44.654Z,102410.28
2022-10-03T11:14:35.168Z,102402.56
2022-10-03T11:17:25.856Z,102399.25
2022-10-03T11:20:31.016Z,102410.88
2022-10-03T11:23:32.901Z,102389.56
2022-10-03T11:26:41.308Z,102412.59
2022-10-03T11:29:15.425Z,102396.53
2022-10-03T11:32:14.621Z,102402.16
2022-10-03T11:35:13.207Z,102415.41
2022-10-03T11:37:50.162Z,102393.06
2022-10-03T11:40:33.813Z,102401.97
2022-10-03T11:43:36.764Z,102401.38
2022-10-03T11:46:31.849Z,102405.91
2022-10-03T11:49:12.658Z,102380.34
2022-10-03T11:52:09.981Z,102402.13
2022-10-03T11:54:43.681Z,102410.94
2022-10-03T11:57:32.171Z,102405.13
2022-10-03T12:00:06.917Z,102408.84
2022-10-03T12:02:53.349Z,102406.53
2022-10-03T12:05:45.664Z,102409.28
2022-10-03T12:08:50.233Z,102405.25
2022-10-03T12:11:25.323Z,102410.78
2022-10-03T12:14:23.716Z,102423.22
2022-10-03T12:17:17.509Z,102405.28
2022-10-03T12:20:03.909Z,102408.09
2022-10-03T12:22:53.026Z,102402.22
2022-10-03T12:25:26.133Z,102408.50
2022-10-03T12:28:14.988Z,102420.03
2022-10-03T12:31:15.908Z,102404.00
2022-10-03T12:34:12.235Z,102418.81
2022-10-03T12:36:49.638Z,102417.25
2022-10-03T12:39:45.817Z,102420.13
2022-10-03T12:42:23.739Z,102416.09
2022-10-03T12:45:05.630Z,102412.94
2022-10-03T12:47:56.407Z,102415.81
2022-10-03T12:50:47.750Z,102419.44
2022-10-03T12:53:18.728Z,102416.16
2022-10-03T12:56:14.339Z,102417.19
2022-10-03T12:59:15.366Z,102385.00
2022-10-03T13:01:58.905Z,102412.47
2022-10-03T13:04:35.673Z,102415.19
2022-10-03T13:07:39.289Z,102417.94
2022-10-03T13:10:32.088Z,102422.41
2022-10-03T13:13:20.428Z,102419.94
2022-10-03T13:16:04.889Z,102420.03
2022-10-03T13:18:38.978Z,102417.59
2022-10-03T13:21:44.065Z,102419.47
2022-10-03T13:24:44.465Z,102416.28
2022-10-03T13:27:32.869Z,102408.63
2022-10-03T13:30:06.166Z,102407.06
2022-10-03T13:32:43.307Z,102420.28
2022-10-03T13:35:52.288Z,102421.44
2022-10-03T13:38:59.308Z,102414.69
2022-10-03T13:41:31.681Z,102419.22
2022-10-03T13:44:10.610Z,102419.44
2022-10-03T13:47:20.150Z,102429.03
2022-10-03T13:50:03.615Z,102421.31
2022-10-03T13:52:46.845Z,102418.78
2022-10-03T13:55:19.491Z,102417.09
2022-10-03T13:58:03.495Z,102417.19
2022-10-03T14:01:14.197Z,102413.78
2022-10-03T14:04:10.488Z,102410.50
2022-10-03T14:06:51.835Z,102413.22
2022-10-03T14:09:41.534Z,102409.00
2022-10-03T14:12:38.224Z,102409.06
2022-10-03T14:15:43.801Z,102411.75
2022-10-03T14:18:37.903Z,102415.28
2022-10-03T14:21:27.877Z,102406.69
2022-10-03T14:24:06.017Z,102414.50
2022-10-03T14:26:42.047Z,102405.94
2022-10-03T14:29:26.574Z,102407.72
2022-10-03T14:32:28.181Z,102414.66
2022-10-03T14:35:17.793Z,102410.44
2022-10-03T14:38:51.419Z,102411.41
2022-10-03T14:41:31.240Z,102411.47
2022-10-03T14:44:12.991Z,102400.31
2022-10-03T14:47:12.671Z,102402.09
2022-10-03T14:49:59.219Z,102400.41
2022-10-03T14:52:47.780Z,102398.72
2022-10-03T14:55:25.219Z,102397.84
2022-10-03T14:58:29.489Z,102415.97
2022-10-03T15:01:24.428Z,102403.97
2022-10-03T15:04:02.339Z,102404.03
2022-10-03T15:06:45.514Z,102408.38
2022-10-03T15:09:21.289Z,102406.69
2022-10-03T15:12:25.501Z,102396.41
2022-10-03T15:15:27.655Z,102398.13
2022-10-03T15:18:05.469Z,102400.72
2022-10-03T15:20:37.594Z,102398.19
2022-10-03T15:23:24.568Z,102394.78
2022-10-03T15:25:54.928Z,102398.25
2022-10-03T15:28:40.308Z,102403.44
2022-10-03T15:31:13.795Z,102397.47
2022-10-03T15:33:44.230Z,102394.88
2022-10-03T15:36:30.555Z,102395.78
2022-10-03T15:39:06.344Z,102392.34
2022-10-03T15:41:56.098Z,102400.97
2022-10-03T15:44:29.531Z,102398.38
2022-10-03T15:47:09.633Z,102396.69
2022-10-03T15:49:41.586Z,102396.75
2022-10-03T15:52:28.450Z,102408.84
2022-10-03T15:55:14.831Z,102401.09
2022-10-03T15:57:56.714Z,102405.44
2022-10-03T16:00:31.682Z,102400.31
2022-10-03T16:03:29.657Z,102405.50
2022-10-03T16:06:06.234Z,102408.94
2022-10-03T16:08:42.822Z,102402.09
2022-10-03T16:11:21.958Z,102413.25
2022-10-03T16:14:11.983Z,102404.69
2022-10-03T16:16:54.110Z,102397.81
2022-10-03T16:20:02.677Z,102401.25
2022-10-03T16:22:50.860Z,102384.16
2022-10-03T16:26:03.759Z,102375.63
2022-10-03T16:28:31.779Z,102393.59
2022-10-03T16:31:06.349Z,102387.59
2022-10-03T16:33:43.541Z,102395.34
2022-10-03T16:36:18.894Z,102387.66
2022-10-03T16:39:26.650Z,102385.06
2022-10-03T16:41:56.196Z,102390.22
2022-10-03T16:44:35.943Z,102385.06
2022-10-03T16:47:06.332Z,102387.66
2022-10-03T16:50:14.406Z,102389.41
2022-10-03T16:52:45.828Z,102395.41
2022-10-03T16:55:37.973Z,102386.81
2022-10-03T16:58:30.014Z,102387.72
2022-10-03T17:01:30.768Z,102401.44
2022-10-03T17:04:26.030Z,102390.31
2022-10-03T17:07:05.667Z,102390.31
2022-10-03T17:09:41.513Z,102387.75
2022-10-03T17:12:30.199Z,102408.41
2022-10-03T17:15:08.827Z,102382.63
2022-10-03T17:18:02.552Z,102397.22
2022-10-03T17:20:50.324Z,102386.06
2022-10-03T17:23:43.080Z,102391.19
2022-10-03T17:26:30.100Z,102382.63
2022-10-03T17:29:25.986Z,102389.53
2022-10-03T17:32:02.530Z,102390.41
2022-10-03T17:34:59.366Z,102384.41
2022-10-03T17:37:47.208Z,102385.28
2022-10-03T17:40:51.775Z,102381.84
2022-10-03T17:43:50.716Z,102393.91
2022-10-03T17:46:29.649Z,102379.31
2022-10-03T17:49:20.700Z,102381.03
2022-10-03T17:51:52.307Z,102391.34
2022-10-03T17:54:33.659Z,102388.78
2022-10-03T17:57:14.987Z,102386.22
2022-10-03T17:59:55.614Z,102373.34
2022-10-03T18:02:39.429Z,102377.63
2022-10-03T18:05:21.052Z,102387.94
2022-10-03T18:07:55.105Z,102384.53
2022-10-03T18:10:29.833Z,102380.22
2022-10-03T18:13:03.717Z,102386.22
2022-10-03T18:15:36.358Z,102377.66
2022-10-03T18:18:28.235Z,102371.66
2022-10-03T18:21:02.052Z,102328.00
2022-10-03T18:24:06.145Z,102385.38
2022-10-03T18:26:47.167Z,102381.97
2022-10-03T18:29:25.950Z,102381.13
2022-10-03T18:32:20.897Z,102391.41
2022-10-03T18:35:01.425Z,102376.00
2022-10-03T18:37:30.918Z,102380.28
2022-10-03T18:40:01.044Z,102378.56
2022-10-03T18:42:32.611Z,102379.44
2022-10-03T18:45:02.175Z,102380.28
2022-10-03T18:47:35.939Z,102374.28
2022-10-03T18:50:35.584Z,102376.00
2022-10-03T18:53:36.227Z,102380.28
2022-10-03T18:56:13.513Z,102378.56
2022-10-03T18:59:08.549Z,102380.28
2022-10-03T19:01:54.423Z,102377.72
2022-10-03T19:04:34.952Z,102376.00
2022-10-03T19:07:12.039Z,102382.00
2022-10-03T19:09:46.927Z,102382.00
2022-10-03T19:12:23.207Z,102379.41
2022-10-03T19:15:21.077Z,102379.41
2022-10-03T19:18:09.113Z,102382.00
2022-10-03T19:20:44.511Z,102380.28
2022-10-03T19:23:20.691Z,102376.84
2022-10-03T19:25:58.948Z,102388.84
2022-10-03T19:28:38.284Z,102385.41
2022-10-03T19:31:17.285Z,102393.97
2022-10-03T19:33:52.310Z,102378.56
2022-10-03T19:36:28.263Z,102390.56
2022-10-03T19:38:58.629Z,102390.56
2022-10-03T19:41:33.646Z,102379.41
2022-10-03T19:44:09.983Z,102385.41
2022-10-03T19:46:48.007Z,102378.56
2022-10-03T19:49:38.768Z,102375.13
2022-10-03T19:52:16.089Z,102375.13
2022-10-03T19:54:53.648Z,102380.28
2022-10-03T19:57:29.483Z,102376.00
2022-10-03T20:00:04.922Z,102369.13
2022-10-03T20:02:34.096Z,102368.28
2022-10-03T20:05:02.515Z,102380.25
2022-10-03T20:07:48.547Z,102371.69
2022-10-03T20:10:35.183Z,102369.13
2022-10-03T20:13:04.728Z,102363.13
2022-10-03T20:15:46.598Z,102368.22
2022-10-03T20:18:24.035Z,102370.81
2022-10-03T20:20:55.946Z,102377.66
2022-10-03T20:23:27.177Z,102365.66
2022-10-03T20:26:04.860Z,102364.78
2022-10-03T20:28:56.367Z,102372.50
2022-10-03T20:31:27.307Z,102368.22
2022-10-03T20:34:00.336Z,102367.34
2022-10-03T20:36:38.258Z,102371.63
2022-10-03T20:39:29.348Z,102370.78
2022-10-03T20:42:04.600Z,102376.75
2022-10-03T20:44:42.024Z,102362.19
2022-10-03T20:47:31.500Z,102367.31
2022-10-03T20:50:18.565Z,102364.75
2022-10-03T20:52:57.153Z,102362.19
2022-10-03T20:55:30.583Z,102366.47
2022-10-03T20:58:07.447Z,102366.44
2022-10-03T21:00:44.895Z,102370.72
2022-10-03T21:03:28.503Z,102365.59
2022-10-03T21:05:59.799Z,102375.88
2022-10-03T21:08:41.437Z,102357.88
2022-10-03T21:11:12.211Z,102373.28
2022-10-03T21:13:54.432Z,102370.72
2022-10-03T21:16:33.711Z,102364.72
2022-10-03T21:19:16.108Z,102368.13
2022-10-03T21:21:53.481Z,102365.56
2022-10-03T21:24:40.102Z,102362.13
2022-10-03T21:27:14.943Z,102359.56
2022-10-03T21:29:56.559Z,102354.44
2022-10-03T21:33:01.576Z,102357.88
2022-10-03T21:35:41.815Z,102309.81
2022-10-03T21:38:31.569Z,102345.81
2022-10-03T21:41:26.803Z,102356.13
2022-10-03T21:44:05.480Z,102350.09
2022-10-03T21:47:15.610Z,102350.09
2022-10-03T21:49:58.669Z,102356.94
2022-10-03T21:52:50.357Z,102354.38
2022-10-03T21:55:50.751Z,102350.06
2022-10-03T21:58:29.766Z,102346.66
2022-10-03T22:01:29.830Z,102348.34
2022-10-03T22:04:09.950Z,102354.34
2022-10-03T22:07:00.896Z,102354.34
2022-10-03T22:09:29.888Z,102346.63
2022-10-03T22:12:06.738Z,102358.59
2022-10-03T22:14:50.311Z,102356.84
2022-10-03T22:17:57.471Z,102344.00
2022-10-03T22:20:32.288Z,102351.69
2022-10-03T22:23:18.216Z,102342.28
2022-10-03T22:25:55.709Z,102348.28
2022-10-03T22:28:32.881Z,102347.44
2022-10-03T22:31:48.000Z,102344.88
2022-10-03T22:34:37.955Z,102356.00
2022-10-03T22:37:06.114Z,102343.16
2022-10-03T22:39:37.303Z,102353.41
2022-10-03T22:42:07.722Z,102354.25
2022-10-03T22:44:41.564Z,102352.53
2022-10-03T22:47:20.282Z,102351.69
2022-10-03T22:49:50.631Z,102347.41
2022-10-03T22:52:25.849Z,102346.53
2022-10-03T22:54:56.068Z,102346.53
2022-10-03T22:57:26.265Z,102350.81
2022-10-03T23:00:09.239Z,102343.94
2022-10-03T23:02:54.793Z,102346.53
2022-10-03T23:05:49.013Z,102337.13
2022-10-03T23:08:38.507Z,102334.56
2022-10-03T23:11:22.885Z,102334.56
2022-10-03T23:13:51.650Z,102343.97
2022-10-03T23:16:55.290Z,102334.53
2022-10-03T23:19:53.283Z,102349.94
2022-10-03T23:22:27.697Z,102339.66
2022-10-03T23:25:03.790Z,102336.19
2022-10-03T23:27:47.434Z,102338.75
2022-10-03T23:30:18.375Z,102336.19
2022-10-03T23:32:49.139Z,102337.91
2022-10-03T23:35:36.720Z,102329.34
2022-10-03T23:38:36.844Z,102340.44
2022-10-03T23:41:12.403Z,102340.44
2022-10-03T23:43:55.880Z,102342.13
2022-10-03T23:46:31.868Z,102349.81
2022-10-03T23:49:02.296Z,102335.28
2022-10-03T23:51:34.552Z,102325.84
2022-10-03T23:54:10.076Z,102335.28
2022-10-03T23:56:48.395Z,102328.44
2022-10-03T23:59:18.056Z,102329.28
